KLKR

Lancaster County-Mc Whirter Field Airport

Lancaster, South Carolina, USA
METAR KLKR 191955Z AUTO 21006KT 10SM 21/10 A3020 RMK AO2
Observed Flight Rules
Oct-19 @ 19:55 UTC (21 minutes ago)
Wind Visibility
210° at 6 knots 10 miles
Temperatures Readings
Current 21°C / 70°F
Dewpoint 10°C / 50°F
Humidity 50%
Altimeter 30.2" Hg
Pressure 1023 hPa
Elevation 149
METAR KLKR 191955Z AUTO 21006KT 10SM 21/10 A3020 RMK AO2
Observed Flight Rules
Oct-19 @ 19:55 UTC
(21 minutes ago)
Wind Visibility
210° at 6 knots 10 miles
Temperature Dewpoint
21°C / 70°F 10°C / 50°F
Humidity Altimeter Pressure
50% 30.2" Hg 1023 hPa